Time,TemperatureF,DewpointF,PressureIn,WindDirection,WindDirectionDegrees,WindSpeedMPH,WindSpeedGustMPH,Humidity,HourlyPrecipIn,Conditions,Clouds,dailyrainin,SoftwareType,DateUTC
2013-09-20 00:00:00,57.8,52.0,29.82,WNW,289,0.0,7.3,81,0.00,,CLR,0.00,VWS V14.01,2013-09-20 05:00:00,
2013-09-20 00:25:00,56.4,50.7,29.82,West,274,2.0,3.1,81,0.00,,CLR,0.00,VWS V14.01,2013-09-20 05:25:00,
2013-09-20 00:30:00,56.1,50.7,29.82,West,271,0.0,4.2,82,0.00,,CLR,0.00,VWS V14.01,2013-09-20 05:30:00,
2013-09-20 00:35:00,55.9,50.5,29.81,WNW,287,0.0,4.2,82,0.00,,CLR,0.00,VWS V14.01,2013-09-20 05:35:00,
2013-09-20 00:40:00,55.6,50.2,29.81,WNW,289,0.0,2.1,82,0.00,,CLR,0.00,VWS V14.01,2013-09-20 05:40:00,
2013-09-20 00:45:00,55.4,50.0,29.81,SW,230,3.0,6.3,82,0.00,,CLR,0.00,VWS V14.01,2013-09-20 05:45:00,
2013-09-20 00:55:00,55.1,49.7,29.81,West,259,6.0,8.4,82,0.00,,CLR,0.00,VWS V14.01,2013-09-20 05:55:00,
2013-09-20 01:00:00,55.0,49.6,29.81,West,268,0.0,7.3,82,0.00,,CLR,0.00,VWS V14.01,2013-09-20 06:00:00,
2013-09-20 01:05:00,54.9,49.5,29.81,West,271,1.0,3.1,82,0.00,,SCT031,0.00,VWS V14.01,2013-09-20 06:05:00,
2013-09-20 01:10:00,54.7,49.3,29.82,West,269,3.0,4.2,82,0.00,,SCT031,0.00,VWS V14.01,2013-09-20 06:10:00,
2013-09-20 01:20:00,54.1,48.7,29.82,WSW,251,2.0,6.3,82,0.00,,SCT031,0.00,VWS V14.01,2013-09-20 06:20:00,
2013-09-20 01:25:00,53.9,48.5,29.82,West,279,2.0,6.3,82,0.00,,SCT031,0.00,VWS V14.01,2013-09-20 06:25:00,
2013-09-20 01:30:00,54.0,48.3,29.82,West,279,1.0,7.3,81,0.00,,SCT031,0.00,VWS V14.01,2013-09-20 06:30:00,
2013-09-20 01:35:00,54.1,48.4,29.82,West,265,3.0,7.3,81,0.00,,SCT031,0.00,VWS V14.01,2013-09-20 06:35:00,
2013-09-20 01:40:00,54.3,48.6,29.82,West,277,6.0,6.3,81,0.00,,CLR,0.00,VWS V14.01,2013-09-20 06:40:00,
2013-09-20 01:50:00,54.7,49.3,29.82,WNW,288,4.0,8.4,82,0.00,,CLR,0.00,VWS V14.01,2013-09-20 06:50:00,
2013-09-20 01:55:00,54.6,49.2,29.82,West,262,2.0,4.2,82,0.00,,CLR,0.00,VWS V14.01,2013-09-20 06:55:00,
2013-09-20 02:00:00,54.4,49.0,29.81,WNW,299,2.0,7.3,82,0.00,,CLR,0.00,VWS V14.01,2013-09-20 07:00:00,
2013-09-20 02:10:00,53.9,48.5,29.81,WNW,292,2.0,7.3,82,0.00,,SCT029,0.00,VWS V14.01,2013-09-20 07:10:00,
2013-09-20 02:15:00,53.7,48.3,29.81,West,277,4.0,4.2,82,0.00,,SCT029,0.00,VWS V14.01,2013-09-20 07:15:00,
2013-09-20 02:20:00,53.4,48.0,29.81,SW,225,2.0,7.3,82,0.00,,SCT029,0.00,VWS V14.01,2013-09-20 07:20:00,
2013-09-20 02:25:00,53.2,47.9,29.81,WSW,258,2.0,5.2,82,0.00,,BKN023,0.00,VWS V14.01,2013-09-20 07:25:00,
2013-09-20 02:30:00,53.0,47.7,29.81,West,265,2.0,6.3,82,0.00,,BKN023,0.00,VWS V14.01,2013-09-20 07:30:00,
2013-09-20 02:35:00,52.9,47.6,29.81,WSW,242,2.0,7.3,82,0.00,,BKN023,0.00,VWS V14.01,2013-09-20 07:35:00,
2013-09-20 02:40:00,52.9,47.6,29.81,WSW,255,0.0,4.2,82,0.00,,BKN023,0.00,VWS V14.01,2013-09-20 07:40:00,
2013-09-20 02:50:00,53.2,47.9,29.81,WSW,253,2.0,7.3,82,0.00,,OVC023,0.00,VWS V14.01,2013-09-20 07:50:00,
2013-09-20 02:55:00,53.3,48.0,29.80,West,281,3.0,9.4,82,0.00,,OVC023,0.00,VWS V14.01,2013-09-20 07:55:00,
2013-09-20 03:00:00,53.5,48.2,29.81,West,261,2.0,7.3,82,0.00,,OVC023,0.00,VWS V14.01,2013-09-20 08:00:00,
2013-09-20 03:10:00,53.8,48.4,29.81,West,279,4.0,7.3,82,0.00,,OVC023,0.00,VWS V14.01,2013-09-20 08:10:00,
2013-09-20 03:15:00,54.1,48.7,29.81,West,281,3.0,7.3,82,0.00,,OVC023,0.00,VWS V14.01,2013-09-20 08:15:00,
2013-09-20 03:20:00,54.4,48.7,29.81,West,280,6.0,7.3,81,0.00,,OVC023,0.00,VWS V14.01,2013-09-20 08:20:00,
2013-09-20 03:25:00,54.7,49.3,29.81,WNW,295,3.0,8.4,82,0.00,,OVC021,0.00,VWS V14.01,2013-09-20 08:25:00,
2013-09-20 03:30:00,55.0,49.3,29.81,West,269,6.0,8.4,81,0.00,,OVC021,0.00,VWS V14.01,2013-09-20 08:30:00,
2013-09-20 03:40:00,55.4,50.0,29.81,WSW,245,7.0,11.5,82,0.00,,OVC021,0.00,VWS V14.01,2013-09-20 08:40:00,
2013-09-20 03:45:00,55.5,50.1,29.81,West,273,3.0,9.4,82,0.00,,OVC024,0.00,VWS V14.01,2013-09-20 08:45:00,
2013-09-20 03:50:00,55.7,50.3,29.81,West,267,3.0,9.4,82,0.00,,OVC024,0.00,VWS V14.01,2013-09-20 08:50:00,
2013-09-20 03:55:00,55.7,50.3,29.80,West,281,9.0,9.4,82,0.00,,OVC024,0.00,VWS V14.01,2013-09-20 08:55:00,
2013-09-20 04:00:00,55.8,50.4,29.80,West,263,3.0,9.4,82,0.00,,OVC024,0.00,VWS V14.01,2013-09-20 09:00:00,
2013-09-20 04:10:00,55.8,50.4,29.80,WSW,252,3.0,11.5,82,0.00,,OVC029,0.00,VWS V14.01,2013-09-20 09:10:00,
2013-09-20 04:15:00,55.8,50.1,29.80,WNW,296,5.0,8.4,81,0.00,,OVC029,0.00,VWS V14.01,2013-09-20 09:15:00,
2013-09-20 04:20:00,55.7,50.0,29.80,West,271,6.0,10.5,81,0.00,,OVC029,0.00,VWS V14.01,2013-09-20 09:20:00,
2013-09-20 04:25:00,55.6,50.2,29.80,West,268,9.0,13.6,82,0.00,,OVC016,0.00,VWS V14.01,2013-09-20 09:25:00,
2013-09-20 04:30:00,55.5,50.1,29.80,SW,229,7.0,9.4,82,0.00,,OVC016,0.00,VWS V14.01,2013-09-20 09:30:00,
2013-09-20 04:40:00,55.3,49.9,29.80,West,279,3.0,11.5,82,0.00,,OVC016,0.00,VWS V14.01,2013-09-20 09:40:00,
2013-09-20 04:45:00,55.1,49.4,29.81,West,281,3.0,8.4,81,0.00,,OVC016,0.00,VWS V14.01,2013-09-20 09:45:00,
2013-09-20 04:50:00,54.9,49.2,29.81,WNW,284,3.0,12.6,81,0.00,,OVC016,0.00,VWS V14.01,2013-09-20 09:50:00,
2013-09-20 04:55:00,54.8,49.1,29.81,WSW,255,5.0,10.5,81,0.00,,OVC016,0.00,VWS V14.01,2013-09-20 09:55:00,
2013-09-20 05:00:00,54.7,49.0,29.81,WNW,294,5.0,12.6,81,0.00,,OVC016,0.00,VWS V14.01,2013-09-20 10:00:00,
2013-09-20 05:05:00,54.6,48.9,29.80,NW,309,5.0,9.4,81,0.00,,,0.00,VWS V14.01,2013-09-20 10:05:00,
2013-09-20 05:10:00,54.6,48.9,29.81,West,259,4.0,10.5,81,0.00,,,0.00,VWS V14.01,2013-09-20 10:10:00,
2013-09-20 05:20:00,54.6,48.9,29.81,West,269,3.0,11.5,81,0.00,,,0.00,VWS V14.01,2013-09-20 10:20:00,
2013-09-20 05:25:00,54.6,48.9,29.81,SW,230,4.0,10.5,81,0.00,,OVC012,0.00,VWS V14.01,2013-09-20 10:25:00,
2013-09-20 05:35:00,54.7,48.7,29.81,WNW,303,4.0,11.5,80,0.00,,OVC012,0.00,VWS V14.01,2013-09-20 10:35:00,
2013-09-20 05:40:00,54.8,48.8,29.81,West,271,3.0,12.6,80,0.00,,OVC012,0.00,VWS V14.01,2013-09-20 10:40:00,
2013-09-20 05:45:00,54.8,48.8,29.81,WSW,246,3.0,12.6,80,0.00,,-RA,0.00,VWS V14.01,2013-09-20 10:45:00,
2013-09-20 05:50:00,54.8,48.8,29.81,WNW,283,7.0,12.6,80,0.00,,-RA,0.00,VWS V14.01,2013-09-20 10:50:00,
2013-09-20 05:55:00,54.9,48.9,29.81,West,271,3.0,11.5,80,0.00,,-RA,0.00,VWS V14.01,2013-09-20 10:55:00,
2013-09-20 06:05:00,55.1,49.4,29.81,WSW,257,9.0,9.4,81,0.00,,RA,0.00,VWS V14.01,2013-09-20 11:05:00,
2013-09-20 06:10:00,55.1,49.4,29.81,WNW,282,0.0,11.5,81,0.00,,RA,0.00,VWS V14.01,2013-09-20 11:10:00,
2013-09-20 06:20:00,55.1,49.4,29.81,West,264,0.0,11.5,81,0.00,,RA,0.00,VWS V14.01,2013-09-20 11:20:00,
2013-09-20 06:25:00,55.1,49.4,29.82,WNW,294,1.0,6.3,81,0.00,,,0.00,VWS V14.01,2013-09-20 11:25:00,
2013-09-20 06:30:00,55.1,49.4,29.82,WNW,295,0.0,8.4,81,0.00,,,0.00,VWS V14.01,2013-09-20 11:30:00,
2013-09-20 06:35:00,55.1,49.4,29.82,WNW,283,4.0,5.2,81,0.00,,,0.00,VWS V14.01,2013-09-20 11:35:00,
2013-09-20 06:40:00,55.0,49.3,29.83,NW,306,0.0,4.2,81,0.00,,,0.00,VWS V14.01,2013-09-20 11:40:00,
2013-09-20 06:45:00,54.9,49.5,29.83,WSW,245,0.0,4.2,82,0.00,,-RA,0.00,VWS V14.01,2013-09-20 11:45:00,
2013-09-20 06:50:00,54.9,49.5,29.83,WSW,253,0.0,7.3,82,0.00,,-RA,0.00,VWS V14.01,2013-09-20 11:50:00,
2013-09-20 06:55:00,54.9,49.5,29.83,SW,218,0.0,2.1,82,0.00,,-RA,0.00,VWS V14.01,2013-09-20 11:55:00,
2013-09-20 07:00:00,54.9,49.5,29.83,West,260,2.0,9.4,82,0.00,,-RA,0.00,VWS V14.01,2013-09-20 12:00:00,
2013-09-20 07:10:00,54.9,49.5,29.83,WSW,249,3.0,4.2,82,0.00,,OVC044,0.00,VWS V14.01,2013-09-20 12:10:00,
2013-09-20 07:15:00,54.8,49.4,29.84,West,261,1.0,6.3,82,0.00,,OVC044,0.00,VWS V14.01,2013-09-20 12:15:00,
2013-09-20 07:20:00,54.6,49.2,29.83,WNW,285,3.0,10.5,82,0.00,,BKN029,0.00,VWS V14.01,2013-09-20 12:20:00,
2013-09-20 07:25:00,54.6,49.2,29.84,WNW,286,1.0,8.4,82,0.00,,BKN029,0.00,VWS V14.01,2013-09-20 12:25:00,
2013-09-20 07:35:00,54.6,49.2,29.84,West,262,3.0,6.3,82,0.00,,BKN029,0.00,VWS V14.01,2013-09-20 12:35:00,
2013-09-20 07:45:00,54.6,49.2,29.84,WSW,240,0.0,9.4,82,0.00,,OVC020,0.00,VWS V14.01,2013-09-20 12:45:00,
2013-09-20 07:50:00,54.6,49.2,29.84,West,261,3.0,4.2,82,0.00,,OVC020,0.00,VWS V14.01,2013-09-20 12:50:00,
2013-09-20 07:55:00,54.7,49.3,29.84,NNE,19,2.0,10.5,82,0.00,,OVC020,0.00,VWS V14.01,2013-09-20 12:55:00,
2013-09-20 08:00:00,54.7,49.3,29.84,NNE,17,4.0,6.3,82,0.00,,OVC020,0.00,VWS V14.01,2013-09-20 13:00:00,
2013-09-20 08:10:00,54.6,49.2,29.85,WNW,292,1.0,8.4,82,0.00,,OVC022,0.00,VWS V14.01,2013-09-20 13:10:00,
2013-09-20 08:15:00,54.6,49.2,29.85,West,260,0.0,7.3,82,0.00,,OVC022,0.00,VWS V14.01,2013-09-20 13:15:00,
2013-09-20 08:25:00,54.7,49.3,29.86,WSW,246,1.0,10.5,82,0.00,,OVC020,0.00,VWS V14.01,2013-09-20 13:25:00,
2013-09-20 08:30:00,54.8,49.4,29.86,NNE,20,0.0,3.1,82,0.00,,OVC020,0.00,VWS V14.01,2013-09-20 13:30:00,
2013-09-20 08:35:00,54.9,49.5,29.86,NNW,348,1.0,5.2,82,0.00,,OVC020,0.00,VWS V14.01,2013-09-20 13:35:00,
2013-09-20 08:40:00,54.9,49.5,29.86,West,265,0.0,8.4,82,0.00,,OVC020,0.00,VWS V14.01,2013-09-20 13:40:00,
2013-09-20 08:45:00,55.0,49.6,29.86,WSW,246,2.0,9.4,82,0.00,,OVC017,0.00,VWS V14.01,2013-09-20 13:45:00,
2013-09-20 08:55:00,55.0,49.6,29.87,West,277,6.0,11.5,82,0.00,,OVC017,0.00,VWS V14.01,2013-09-20 13:55:00,
2013-09-20 09:00:00,54.9,49.8,29.87,WNW,298,0.0,7.3,83,0.00,,OVC017,0.00,VWS V14.01,2013-09-20 14:00:00,
2013-09-20 09:10:00,55.1,49.7,29.87,North,360,1.0,11.5,82,0.00,,BKN017,0.00,VWS V14.01,2013-09-20 14:10:00,
2013-09-20 09:20:00,55.7,50.3,29.88,NW,319,3.0,10.5,82,0.00,,BKN017,0.00,VWS V14.01,2013-09-20 14:20:00,
2013-09-20 09:25:00,55.8,50.4,29.88,WNW,303,4.0,8.4,82,0.00,,OVC016,0.00,VWS V14.01,2013-09-20 14:25:00,
2013-09-20 09:30:00,55.7,50.3,29.88,NE,47,0.0,10.5,82,0.00,,OVC016,0.00,VWS V14.01,2013-09-20 14:30:00,
2013-09-20 09:35:00,55.7,50.3,29.88,WNW,286,0.0,11.5,82,0.00,,OVC016,0.00,VWS V14.01,2013-09-20 14:35:00,
2013-09-20 09:45:00,56.7,50.9,29.88,West,264,1.0,9.4,81,0.00,,OVC016,0.00,VWS V14.01,2013-09-20 14:45:00,
2013-09-20 09:50:00,56.6,50.8,29.89,NE,54,1.0,12.6,81,0.00,,OVC016,0.00,VWS V14.01,2013-09-20 14:50:00,
2013-09-20 10:00:00,56.9,51.1,29.88,WNW,290,4.0,11.5,81,0.00,,OVC016,0.00,VWS V14.01,2013-09-20 15:00:00,
2013-09-20 10:10:00,57.3,51.2,29.89,NW,314,2.0,8.4,80,0.00,,OVC022,0.00,VWS V14.01,2013-09-20 15:10:00,
2013-09-20 10:20:00,58.6,52.1,29.89,WNW,282,1.0,7.3,79,0.00,,OVC022,0.00,VWS V14.01,2013-09-20 15:20:00,
2013-09-20 10:25:00,58.8,52.3,29.89,West,261,1.0,7.3,79,0.00,,OVC022,0.00,VWS V14.01,2013-09-20 15:25:00,
2013-09-20 10:30:00,58.5,51.7,29.89,NW,306,4.0,11.5,78,0.00,,OVC022,0.00,VWS V14.01,2013-09-20 15:30:00,
2013-09-20 10:35:00,58.5,51.7,29.89,WNW,288,1.0,9.4,78,0.00,,OVC022,0.00,VWS V14.01,2013-09-20 15:35:00,
2013-09-20 10:40:00,58.7,51.5,29.89,NW,311,3.0,9.4,77,0.00,,OVC022,0.00,VWS V14.01,2013-09-20 15:40:00,
2013-09-20 10:50:00,59.4,51.8,29.89,WNW,293,0.0,10.5,76,0.00,,OVC022,0.00,VWS V14.01,2013-09-20 15:50:00,
2013-09-20 10:55:00,59.8,52.6,29.90,West,274,2.0,10.5,77,0.00,,OVC022,0.00,VWS V14.01,2013-09-20 15:55:00,
2013-09-20 11:00:00,59.4,52.2,29.90,West,266,4.0,11.5,77,0.00,,OVC022,0.00,VWS V14.01,2013-09-20 16:00:00,
2013-09-20 11:05:00,58.3,51.8,29.90,West,269,7.0,12.6,79,0.00,,OVC025,0.00,VWS V14.01,2013-09-20 16:05:00,
2013-09-20 11:15:00,57.5,51.7,29.90,West,275,3.0,12.6,81,0.00,,OVC025,0.00,VWS V14.01,2013-09-20 16:15:00,
2013-09-20 11:20:00,57.5,51.7,29.90,West,267,1.0,12.6,81,0.00,,OVC025,0.00,VWS V14.01,2013-09-20 16:20:00,
2013-09-20 11:25:00,57.6,51.5,29.90,West,267,3.0,9.4,80,0.00,,OVC025,0.00,VWS V14.01,2013-09-20 16:25:00,
2013-09-20 11:30:00,57.6,51.1,29.90,WNW,284,2.0,12.6,79,0.00,,OVC025,0.00,VWS V14.01,2013-09-20 16:30:00,
2013-09-20 11:40:00,58.0,51.9,29.90,WNW,288,2.0,7.3,80,0.00,,OVC025,0.00,VWS V14.01,2013-09-20 16:40:00,
2013-09-20 11:45:00,58.2,51.4,29.90,WSW,238,4.0,10.5,78,0.00,,OVC029,0.00,VWS V14.01,2013-09-20 16:45:00,
2013-09-20 11:50:00,58.2,51.0,29.90,NNW,340,6.0,11.5,77,0.00,,OVC029,0.00,VWS V14.01,2013-09-20 16:50:00,
2013-09-20 11:55:00,58.1,51.3,29.90,WNW,284,4.0,6.3,78,0.00,,OVC029,0.00,VWS V14.01,2013-09-20 16:55:00,
2013-09-20 12:00:00,58.1,51.6,29.90,West,276,0.0,4.2,79,0.00,,OVC029,0.00,VWS V14.01,2013-09-20 17:00:00,
2013-09-20 12:05:00,58.0,51.5,29.90,West,271,2.0,8.4,79,0.00,,OVC024,0.00,VWS V14.01,2013-09-20 17:05:00,
2013-09-20 12:10:00,58.0,51.9,29.90,WSW,254,4.0,9.4,80,0.00,,OVC024,0.00,VWS V14.01,2013-09-20 17:10:00,
2013-09-20 12:15:00,58.0,51.9,29.90,West,265,3.0,8.4,80,0.00,,OVC024,0.00,VWS V14.01,2013-09-20 17:15:00,
2013-09-20 12:20:00,58.0,51.5,29.90,West,270,4.0,12.6,79,0.00,,OVC024,0.00,VWS V14.01,2013-09-20 17:20:00,
2013-09-20 12:25:00,57.8,51.7,29.90,SW,224,3.0,11.5,80,0.00,,OVC025,0.00,VWS V14.01,2013-09-20 17:25:00,
2013-09-20 12:35:00,58.1,52.0,29.90,West,265,2.0,11.5,80,0.00,,OVC025,0.00,VWS V14.01,2013-09-20 17:35:00,
2013-09-20 12:40:00,58.5,52.4,29.90,West,267,10.0,17.8,80,0.00,,OVC025,0.00,VWS V14.01,2013-09-20 17:40:00,
2013-09-20 12:50:00,58.6,52.1,29.90,SW,228,3.0,18.9,79,0.00,,OVC019,0.00,VWS V14.01,2013-09-20 17:50:00,
2013-09-20 12:55:00,59.0,52.8,29.90,WSW,254,5.0,12.6,80,0.00,,OVC019,0.00,VWS V14.01,2013-09-20 17:55:00,
2013-09-20 13:05:00,59.8,52.9,29.90,SW,215,0.0,12.6,78,0.00,,OVC021,0.00,VWS V14.01,2013-09-20 18:05:00,
2013-09-20 13:10:00,60.1,52.9,29.90,West,279,7.0,12.6,77,0.00,,OVC021,0.00,VWS V14.01,2013-09-20 18:10:00,
2013-09-20 13:15:00,59.7,52.1,29.90,WNW,291,4.0,13.6,76,0.00,,OVC021,0.00,VWS V14.01,2013-09-20 18:15:00,
2013-09-20 13:20:00,59.6,52.4,29.89,NW,315,8.0,12.6,77,0.00,,OVC021,0.00,VWS V14.01,2013-09-20 18:20:00,
2013-09-20 13:25:00,59.8,52.6,29.89,WNW,284,6.0,12.6,77,0.00,,OVC021,0.00,VWS V14.01,2013-09-20 18:25:00,
2013-09-20 13:35:00,58.9,51.7,29.89,WNW,292,7.0,11.5,77,0.00,,OVC021,0.00,VWS V14.01,2013-09-20 18:35:00,
2013-09-20 13:40:00,58.4,51.6,29.89,West,279,7.0,15.7,78,0.00,,OVC021,0.00,VWS V14.01,2013-09-20 18:40:00,
2013-09-20 13:45:00,58.0,51.5,29.90,WNW,296,4.0,10.5,79,0.00,,OVC023,0.00,VWS V14.01,2013-09-20 18:45:00,
2013-09-20 13:55:00,57.2,51.1,29.90,WNW,296,4.0,13.6,80,0.00,,OVC023,0.00,VWS V14.01,2013-09-20 18:55:00,
2013-09-20 14:00:00,57.2,51.1,29.90,NW,315,2.0,8.4,80,0.00,,OVC023,0.00,VWS V14.01,2013-09-20 19:00:00,
2013-09-20 14:10:00,57.3,51.2,29.90,WNW,298,0.0,2.1,80,0.00,,OVC030,0.00,VWS V14.01,2013-09-20 19:10:00,
2013-09-20 14:15:00,57.2,51.1,29.90,SW,230,0.0,7.3,80,0.00,,OVC030,0.00,VWS V14.01,2013-09-20 19:15:00,
2013-09-20 14:20:00,57.3,51.2,29.90,SW,226,0.0,5.2,80,0.00,,OVC030,0.00,VWS V14.01,2013-09-20 19:20:00,
2013-09-20 14:25:00,57.5,51.4,29.90,NW,304,0.0,8.4,80,0.00,,OVC032,0.00,VWS V14.01,2013-09-20 19:25:00,
2013-09-20 14:35:00,57.8,51.7,29.89,West,261,1.0,10.5,80,0.00,,OVC032,0.00,VWS V14.01,2013-09-20 19:35:00,
2013-09-20 14:40:00,57.7,51.9,29.89,West,279,3.0,4.2,81,0.00,,OVC032,0.00,VWS V14.01,2013-09-20 19:40:00,
2013-09-20 14:45:00,57.1,51.3,29.89,NW,322,0.0,4.2,81,0.00,,OVC037,0.00,VWS V14.01,2013-09-20 19:45:00,
2013-09-20 14:50:00,56.9,51.5,29.89,SSW,213,0.0,9.4,82,0.00,,OVC037,0.00,VWS V14.01,2013-09-20 19:50:00,
2013-09-20 14:55:00,57.0,51.2,29.89,NW,310,5.0,10.5,81,0.00,,OVC037,0.00,VWS V14.01,2013-09-20 19:55:00,
2013-09-20 15:05:00,56.7,50.9,29.90,North,360,0.0,6.3,81,0.00,,OVC037,0.00,VWS V14.01,2013-09-20 20:05:00,
2013-09-20 15:10:00,56.4,51.0,29.90,West,269,1.0,8.4,82,0.00,,OVC037,0.00,VWS V14.01,2013-09-20 20:10:00,
2013-09-20 15:20:00,55.9,50.2,29.90,WSW,240,0.0,10.5,81,0.00,,OVC042,0.00,VWS V14.01,2013-09-20 20:20:00,
2013-09-20 15:30:00,56.6,50.8,29.89,NW,313,3.0,11.5,81,0.00,,OVC042,0.00,VWS V14.01,2013-09-20 20:30:00,
2013-09-20 15:35:00,56.7,50.9,29.89,WNW,289,7.0,11.5,81,0.00,,OVC042,0.00,VWS V14.01,2013-09-20 20:35:00,
2013-09-20 15:40:00,56.6,50.8,29.89,NNW,330,10.0,11.5,81,0.00,,OVC042,0.00,VWS V14.01,2013-09-20 20:40:00,
2013-09-20 15:45:00,56.6,50.8,29.89,WNW,302,2.0,10.5,81,0.01,,OVC042,0.01,VWS V14.01,2013-09-20 20:45:00,
2013-09-20 15:50:00,56.2,50.5,29.90,West,275,0.0,5.2,81,0.01,,OVC049,0.01,VWS V14.01,2013-09-20 20:50:00,
2013-09-20 16:00:00,55.9,50.2,29.89,NNW,334,1.0,7.3,81,0.01,,OVC049,0.01,VWS V14.01,2013-09-20 21:00:00,
2013-09-20 16:10:00,56.3,49.5,29.90,WNW,283,0.0,8.4,78,0.01,,OVC049,0.01,VWS V14.01,2013-09-20 21:10:00,
2013-09-20 16:20:00,56.9,49.1,29.90,West,269,0.0,10.5,75,0.01,,OVC049,0.01,VWS V14.01,2013-09-20 21:20:00,
2013-09-20 16:30:00,57.3,50.2,29.89,WSW,252,2.0,7.3,77,0.01,,OVC049,0.01,VWS V14.01,2013-09-20 21:30:00,
2013-09-20 16:40:00,57.6,49.4,29.89,West,271,0.0,12.6,74,0.01,,OVC049,0.01,VWS V14.01,2013-09-20 21:40:00,
2013-09-20 16:45:00,57.8,50.3,29.89,WNW,288,1.0,9.4,76,0.01,,OVC050,0.01,VWS V14.01,2013-09-20 21:45:00,
2013-09-20 16:50:00,57.9,50.0,29.89,WSW,248,2.0,7.3,75,0.00,,OVC050,0.01,VWS V14.01,2013-09-20 21:50:00,
2013-09-20 16:55:00,57.8,49.6,29.89,WSW,240,1.0,10.5,74,0.00,,OVC050,0.01,VWS V14.01,2013-09-20 21:55:00,
2013-09-20 17:05:00,57.5,49.7,29.89,West,277,7.0,10.5,75,0.00,,OVC050,0.01,VWS V14.01,2013-09-20 22:05:00,
2013-09-20 17:10:00,57.4,49.5,29.89,West,263,2.0,10.5,75,0.00,,OVC050,0.01,VWS V14.01,2013-09-20 22:10:00,
2013-09-20 17:20:00,57.3,49.5,29.89,West,263,4.0,9.4,75,0.00,,OVC050,0.01,VWS V14.01,2013-09-20 22:20:00,
2013-09-20 17:25:00,57.3,49.1,29.89,WNW,299,4.0,9.4,74,0.00,,OVC050,0.01,VWS V14.01,2013-09-20 22:25:00,
2013-09-20 17:30:00,57.3,49.1,29.89,West,277,0.0,9.4,74,0.00,,OVC050,0.01,VWS V14.01,2013-09-20 22:30:00,
2013-09-20 17:35:00,57.5,48.9,29.89,West,272,2.0,7.3,73,0.00,,OVC050,0.01,VWS V14.01,2013-09-20 22:35:00,
2013-09-20 17:45:00,57.7,49.5,29.89,South,188,0.0,3.1,74,0.00,,BKN050,0.01,VWS V14.01,2013-09-20 22:45:00,
2013-09-20 17:55:00,58.7,49.0,29.89,WNW,303,2.0,4.2,70,0.00,,BKN050,0.01,VWS V14.01,2013-09-20 22:55:00,
2013-09-20 18:00:00,59.2,49.0,29.89,NNW,328,0.0,4.2,69,0.00,,BKN050,0.01,VWS V14.01,2013-09-20 23:00:00,
2013-09-20 18:10:00,59.8,49.2,29.89,West,260,0.0,6.3,68,0.00,,SCT060,0.01,VWS V14.01,2013-09-20 23:10:00,
2013-09-20 18:15:00,59.8,49.2,29.89,West,265,0.0,5.2,68,0.00,,SCT060,0.01,VWS V14.01,2013-09-20 23:15:00,
2013-09-20 18:25:00,59.5,48.5,29.89,WNW,296,1.0,8.4,67,0.00,,SCT060,0.01,VWS V14.01,2013-09-20 23:25:00,
2013-09-20 18:35:00,59.3,48.4,29.89,NE,45,2.0,4.2,67,0.00,,SCT060,0.01,VWS V14.01,2013-09-20 23:35:00,
2013-09-20 18:45:00,59.5,48.9,29.89,West,261,0.0,3.1,68,0.00,,CLR,0.01,VWS V14.01,2013-09-20 23:45:00,
2013-09-20 18:50:00,59.3,48.8,29.89,NE,53,0.0,3.1,68,0.00,,CLR,0.01,VWS V14.01,2013-09-20 23:50:00,
2013-09-20 18:55:00,59.0,48.5,29.89,NW,326,1.0,5.2,68,0.00,,CLR,0.01,VWS V14.01,2013-09-20 23:55:00,
2013-09-20 19:00:00,58.6,48.9,29.89,West,275,0.0,4.2,70,0.00,,CLR,0.01,VWS V14.01,2013-09-21 00:00:00,
2013-09-20 19:05:00,58.3,48.6,29.89,NW,305,0.0,3.1,70,0.00,,CLR,0.01,VWS V14.01,2013-09-21 00:05:00,
2013-09-20 19:15:00,57.7,48.8,29.89,NNW,335,0.0,3.1,72,0.00,,CLR,0.01,VWS V14.01,2013-09-21 00:15:00,
2013-09-20 19:20:00,57.4,49.2,29.90,NNW,340,0.0,0.0,74,0.00,,CLR,0.01,VWS V14.01,2013-09-21 00:20:00,
2013-09-20 19:25:00,57.1,49.3,29.90,NNW,331,0.0,1.0,75,0.00,,CLR,0.01,VWS V14.01,2013-09-21 00:25:00,
2013-09-20 19:35:00,56.4,49.3,29.90,NNW,331,0.0,0.0,77,0.00,,CLR,0.01,VWS V14.01,2013-09-21 00:35:00,
2013-09-20 19:40:00,56.1,49.3,29.90,NNW,331,0.0,0.0,78,0.00,,CLR,0.01,VWS V14.01,2013-09-21 00:40:00,
2013-09-20 19:45:00,55.7,49.3,29.90,NNW,331,0.0,0.0,79,0.00,,CLR,0.01,VWS V14.01,2013-09-21 00:45:00,
2013-09-20 19:55:00,54.9,48.5,29.90,NNW,331,0.0,0.0,79,0.00,,CLR,0.01,VWS V14.01,2013-09-21 00:55:00,
2013-09-20 20:00:00,54.4,48.4,29.90,NNW,331,0.0,0.0,80,0.00,,CLR,0.01,VWS V14.01,2013-09-21 01:00:00,
2013-09-20 20:10:00,52.8,47.1,29.91,WNW,294,0.0,2.1,81,0.00,,CLR,0.01,VWS V14.01,2013-09-21 01:10:00,
2013-09-20 20:20:00,51.8,46.5,29.91,WNW,294,0.0,0.0,82,0.00,,CLR,0.01,VWS V14.01,2013-09-21 01:20:00,
2013-09-20 20:25:00,51.4,46.1,29.91,WNW,294,0.0,0.0,82,0.00,,CLR,0.01,VWS V14.01,2013-09-21 01:25:00,
2013-09-20 20:35:00,50.9,45.6,29.92,WNW,295,0.0,0.0,82,0.00,,CLR,0.01,VWS V14.01,2013-09-21 01:35:00,
2013-09-20 20:45:00,50.4,45.1,29.92,WNW,295,0.0,0.0,82,0.00,,CLR,0.01,VWS V14.01,2013-09-21 01:45:00,
2013-09-20 20:50:00,50.2,44.9,29.92,WNW,294,0.0,0.0,82,0.00,,CLR,0.01,VWS V14.01,2013-09-21 01:50:00,
2013-09-20 20:55:00,50.0,44.7,29.92,WNW,294,0.0,0.0,82,0.00,,CLR,0.01,VWS V14.01,2013-09-21 01:55:00,
2013-09-20 21:00:00,49.7,44.4,29.92,WNW,294,0.0,0.0,82,0.00,,CLR,0.01,VWS V14.01,2013-09-21 02:00:00,
2013-09-20 21:05:00,49.5,44.2,29.92,WNW,294,0.0,0.0,82,0.00,,CLR,0.01,VWS V14.01,2013-09-21 02:05:00,
2013-09-20 21:10:00,49.3,44.0,29.92,WNW,295,0.0,0.0,82,0.00,,CLR,0.01,VWS V14.01,2013-09-21 02:10:00,
2013-09-20 21:15:00,49.0,43.8,29.92,WNW,295,0.0,0.0,82,0.00,,CLR,0.01,VWS V14.01,2013-09-21 02:15:00,
2013-09-20 21:25:00,48.9,43.7,29.92,WNW,295,0.0,0.0,82,0.00,,CLR,0.01,VWS V14.01,2013-09-21 02:25:00,
2013-09-20 21:30:00,48.8,43.6,29.93,WNW,295,0.0,0.0,82,0.00,,CLR,0.01,VWS V14.01,2013-09-21 02:30:00,
2013-09-20 21:35:00,48.7,43.5,29.93,WNW,295,0.0,0.0,82,0.00,,CLR,0.01,VWS V14.01,2013-09-21 02:35:00,
2013-09-20 21:45:00,48.3,43.1,29.93,WNW,295,0.0,0.0,82,0.00,,CLR,0.01,VWS V14.01,2013-09-21 02:45:00,
2013-09-20 21:55:00,48.2,43.0,29.93,WNW,295,0.0,0.0,82,0.00,,CLR,0.01,VWS V14.01,2013-09-21 02:55:00,
2013-09-20 22:00:00,48.2,43.0,29.93,WNW,295,0.0,0.0,82,0.00,,CLR,0.01,VWS V14.01,2013-09-21 03:00:00,
2013-09-20 22:05:00,48.2,43.0,29.93,WNW,295,0.0,0.0,82,0.00,,CLR,0.01,VWS V14.01,2013-09-21 03:05:00,
2013-09-20 22:10:00,48.1,42.9,29.93,WNW,295,0.0,0.0,82,0.00,,CLR,0.01,VWS V14.01,2013-09-21 03:10:00,
2013-09-20 22:20:00,47.7,42.5,29.93,WNW,295,0.0,0.0,82,0.00,,CLR,0.01,VWS V14.01,2013-09-21 03:20:00,
2013-09-20 22:25:00,47.5,42.6,29.93,WNW,295,0.0,0.0,83,0.00,,CLR,0.01,VWS V14.01,2013-09-21 03:25:00,
2013-09-20 22:35:00,46.9,41.7,29.93,WNW,295,0.0,0.0,82,0.00,,CLR,0.01,VWS V14.01,2013-09-21 03:35:00,
2013-09-20 22:45:00,46.4,41.2,29.93,WNW,295,0.0,0.0,82,0.00,,CLR,0.01,VWS V14.01,2013-09-21 03:45:00,
2013-09-20 22:50:00,46.3,41.1,29.93,WNW,295,0.0,0.0,82,0.00,,CLR,0.01,VWS V14.01,2013-09-21 03:50:00,
2013-09-20 22:55:00,46.4,41.2,29.93,WNW,295,0.0,0.0,82,0.00,,CLR,0.01,VWS V14.01,2013-09-21 03:55:00,
2013-09-20 23:00:00,46.6,41.4,29.93,WNW,295,0.0,0.0,82,0.00,,CLR,0.01,VWS V14.01,2013-09-21 04:00:00,
2013-09-20 23:05:00,46.7,41.5,29.93,WNW,295,0.0,0.0,82,0.00,,CLR,0.01,VWS V14.01,2013-09-21 04:05:00,
2013-09-20 23:10:00,46.7,41.5,29.93,WNW,295,0.0,0.0,82,0.00,,CLR,0.01,VWS V14.01,2013-09-21 04:10:00,
2013-09-20 23:15:00,46.9,41.7,29.93,WNW,295,0.0,0.0,82,0.00,,CLR,0.01,VWS V14.01,2013-09-21 04:15:00,
2013-09-20 23:25:00,46.7,41.5,29.93,WNW,295,0.0,0.0,82,0.00,,CLR,0.01,VWS V14.01,2013-09-21 04:25:00,
2013-09-20 23:30:00,46.7,41.5,29.94,WNW,295,0.0,0.0,82,0.00,,CLR,0.01,VWS V14.01,2013-09-21 04:30:00,
2013-09-20 23:35:00,46.8,41.6,29.94,WNW,295,0.0,0.0,82,0.00,,CLR,0.01,VWS V14.01,2013-09-21 04:35:00,
2013-09-20 23:40:00,46.6,41.4,29.94,WNW,295,0.0,0.0,82,0.00,,CLR,0.01,VWS V14.01,2013-09-21 04:40:00,
2013-09-20 23:45:00,46.2,41.3,29.94,WNW,295,0.0,0.0,83,0.00,,CLR,0.01,VWS V14.01,2013-09-21 04:45:00,
2013-09-20 23:55:00,45.5,40.3,29.94,WNW,295,0.0,0.0,82,0.00,,CLR,0.01,VWS V14.01,2013-09-21 04:55:00,